sensor_id;sensor_type;location;lat;lon;timestamp;temperature;humidity
38860;DHT22;24609;48.316;16.174;2024-02-28T00:00:46;12.50;1.00
38860;DHT22;24609;48.316;16.174;2024-02-28T00:03:12;12.40;11.40
38860;DHT22;24609;48.316;16.174;2024-02-28T00:05:37;12.30;28.80
38860;DHT22;24609;48.316;16.174;2024-02-28T00:08:04;12.00;99.90
38860;DHT22;24609;48.316;16.174;2024-02-28T00:10:29;11.10;1.00
38860;DHT22;24609;48.316;16.174;2024-02-28T00:12:55;10.40;1.00
38860;DHT22;24609;48.316;16.174;2024-02-28T00:15:21;9.90;1.00
38860;DHT22;24609;48.316;16.174;2024-02-28T00:17:46;9.40;75.00
38860;DHT22;24609;48.316;16.174;2024-02-28T00:20:12;9.10;99.90
38860;DHT22;24609;48.316;16.174;2024-02-28T00:22:39;8.90;99.90
38860;DHT22;24609;48.316;16.174;2024-02-28T00:25:05;8.70;17.40
38860;DHT22;24609;48.316;16.174;2024-02-28T00:27:32;8.60;99.90
38860;DHT22;24609;48.316;16.174;2024-02-28T00:29:59;8.40;1.00
38860;DHT22;24609;48.316;16.174;2024-02-28T00:32:24;8.30;1.00
38860;DHT22;24609;48.316;16.174;2024-02-28T00:34:50;8.30;89.00
38860;DHT22;24609;48.316;16.174;2024-02-28T00:37:16;8.20;99.90
38860;DHT22;24609;48.316;16.174;2024-02-28T00:39:44;8.10;99.90
38860;DHT22;24609;48.316;16.174;2024-02-28T00:42:10;8.00;99.90
38860;DHT22;24609;48.316;16.174;2024-02-28T00:44:36;7.90;99.90
38860;DHT22;24609;48.316;16.174;2024-02-28T00:47:01;7.90;99.90
38860;DHT22;24609;48.316;16.174;2024-02-28T00:49:27;7.80;1.00
38860;DHT22;24609;48.316;16.174;2024-02-28T00:51:53;7.80;1.00
38860;DHT22;24609;48.316;16.174;2024-02-28T00:54:18;7.80;1.00
38860;DHT22;24609;48.316;16.174;2024-02-28T00:56:44;7.70;99.90
38860;DHT22;24609;48.316;16.174;2024-02-28T00:59:10;7.70;99.90
38860;DHT22;24609;48.316;16.174;2024-02-28T01:01:39;7.70;99.90
38860;DHT22;24609;48.316;16.174;2024-02-28T01:04:05;7.60;99.90
38860;DHT22;24609;48.316;16.174;2024-02-28T01:06:31;7.50;99.90
38860;DHT22;24609;48.316;16.174;2024-02-28T01:08:56;7.40;1.00
38860;DHT22;24609;48.316;16.174;2024-02-28T01:11:22;7.40;1.00
38860;DHT22;24609;48.316;16.174;2024-02-28T01:13:48;7.30;1.00
38860;DHT22;24609;48.316;16.174;2024-02-28T01:16:13;7.30;1.00
38860;DHT22;24609;48.316;16.174;2024-02-28T01:18:39;7.20;1.00
38860;DHT22;24609;48.316;16.174;2024-02-28T01:21:04;7.20;1.00
38860;DHT22;24609;48.316;16.174;2024-02-28T01:23:30;7.10;1.00
38860;DHT22;24609;48.316;16.174;2024-02-28T01:25:56;7.10;1.00
38860;DHT22;24609;48.316;16.174;2024-02-28T01:28:22;7.10;1.00
38860;DHT22;24609;48.316;16.174;2024-02-28T01:30:48;7.10;1.00
38860;DHT22;24609;48.316;16.174;2024-02-28T01:33:14;7.00;1.00
38860;DHT22;24609;48.316;16.174;2024-02-28T01:35:40;7.10;1.00
38860;DHT22;24609;48.316;16.174;2024-02-28T01:38:06;7.10;1.00
38860;DHT22;24609;48.316;16.174;2024-02-28T01:40:31;7.10;1.00
38860;DHT22;24609;48.316;16.174;2024-02-28T01:43:06;7.00;1.00
38860;DHT22;24609;48.316;16.174;2024-02-28T01:45:32;7.00;1.00
38860;DHT22;24609;48.316;16.174;2024-02-28T01:47:57;7.00;1.00
38860;DHT22;24609;48.316;16.174;2024-02-28T01:50:23;7.00;1.00
38860;DHT22;24609;48.316;16.174;2024-02-28T01:52:49;7.00;1.00
38860;DHT22;24609;48.316;16.174;2024-02-28T01:55:15;6.90;1.00
38860;DHT22;24609;48.316;16.174;2024-02-28T01:57:41;6.90;1.00
38860;DHT22;24609;48.316;16.174;2024-02-28T02:00:07;6.90;1.00
38860;DHT22;24609;48.316;16.174;2024-02-28T02:02:36;7.00;1.00
38860;DHT22;24609;48.316;16.174;2024-02-28T02:05:02;7.10;1.00
38860;DHT22;24609;48.316;16.174;2024-02-28T02:07:28;7.20;99.90
38860;DHT22;24609;48.316;16.174;2024-02-28T02:09:54;7.20;99.90
38860;DHT22;24609;48.316;16.174;2024-02-28T02:12:20;7.20;99.90
38860;DHT22;24609;48.316;16.174;2024-02-28T02:14:49;7.10;99.90
38860;DHT22;24609;48.316;16.174;2024-02-28T02:17:14;7.20;99.90
38860;DHT22;24609;48.316;16.174;2024-02-28T02:19:40;7.10;99.90
38860;DHT22;24609;48.316;16.174;2024-02-28T02:22:08;7.20;99.90
38860;DHT22;24609;48.316;16.174;2024-02-28T02:24:35;7.10;99.90
38860;DHT22;24609;48.316;16.174;2024-02-28T02:27:01;7.10;99.90
38860;DHT22;24609;48.316;16.174;2024-02-28T02:29:28;7.10;1.00
38860;DHT22;24609;48.316;16.174;2024-02-28T02:31:54;7.20;29.60
38860;DHT22;24609;48.316;16.174;2024-02-28T02:34:20;7.20;29.70
38860;DHT22;24609;48.316;16.174;2024-02-28T02:36:45;7.30;23.20
38860;DHT22;24609;48.316;16.174;2024-02-28T02:39:11;7.30;22.20
38860;DHT22;24609;48.316;16.174;2024-02-28T02:41:37;7.30;7.90
38860;DHT22;24609;48.316;16.174;2024-02-28T02:44:02;7.40;1.00
38860;DHT22;24609;48.316;16.174;2024-02-28T02:46:28;7.40;1.00
38860;DHT22;24609;48.316;16.174;2024-02-28T02:48:54;7.40;1.00
38860;DHT22;24609;48.316;16.174;2024-02-28T02:51:20;7.30;1.00
38860;DHT22;24609;48.316;16.174;2024-02-28T02:53:45;7.30;1.00
38860;DHT22;24609;48.316;16.174;2024-02-28T02:56:11;7.30;1.00
38860;DHT22;24609;48.316;16.174;2024-02-28T02:58:37;7.30;1.00
38860;DHT22;24609;48.316;16.174;2024-02-28T03:01:02;7.30;1.00
38860;DHT22;24609;48.316;16.174;2024-02-28T03:03:28;7.30;1.00
38860;DHT22;24609;48.316;16.174;2024-02-28T03:05:54;7.30;1.00
38860;DHT22;24609;48.316;16.174;2024-02-28T03:08:19;7.20;1.00
38860;DHT22;24609;48.316;16.174;2024-02-28T03:10:45;7.20;1.00
38860;DHT22;24609;48.316;16.174;2024-02-28T03:13:11;7.10;2.50
38860;DHT22;24609;48.316;16.174;2024-02-28T03:15:36;7.10;1.00
38860;DHT22;24609;48.316;16.174;2024-02-28T03:18:02;7.10;1.00
38860;DHT22;24609;48.316;16.174;2024-02-28T03:20:28;7.20;1.00
38860;DHT22;24609;48.316;16.174;2024-02-28T03:22:53;7.20;1.00
38860;DHT22;24609;48.316;16.174;2024-02-28T03:25:19;7.20;1.00
38860;DHT22;24609;48.316;16.174;2024-02-28T03:27:45;7.20;1.00
38860;DHT22;24609;48.316;16.174;2024-02-28T03:30:10;7.20;99.90
38860;DHT22;24609;48.316;16.174;2024-02-28T03:32:36;7.20;99.90
38860;DHT22;24609;48.316;16.174;2024-02-28T03:35:02;7.20;99.90
38860;DHT22;24609;48.316;16.174;2024-02-28T03:37:29;7.10;99.90
38860;DHT22;24609;48.316;16.174;2024-02-28T03:39:55;7.00;99.90
38860;DHT22;24609;48.316;16.174;2024-02-28T03:42:20;6.90;1.00
38860;DHT22;24609;48.316;16.174;2024-02-28T03:44:46;6.70;1.00
38860;DHT22;24609;48.316;16.174;2024-02-28T03:47:12;6.70;1.00
38860;DHT22;24609;48.316;16.174;2024-02-28T03:49:38;6.70;1.00
38860;DHT22;24609;48.316;16.174;2024-02-28T03:52:03;6.60;1.00
38860;DHT22;24609;48.316;16.174;2024-02-28T03:54:31;6.50;1.00
38860;DHT22;24609;48.316;16.174;2024-02-28T03:56:57;6.50;1.00
38860;DHT22;24609;48.316;16.174;2024-02-28T03:59:24;6.50;1.00
38860;DHT22;24609;48.316;16.174;2024-02-28T04:01:49;6.40;1.00
38860;DHT22;24609;48.316;16.174;2024-02-28T04:04:15;6.30;1.00
38860;DHT22;24609;48.316;16.174;2024-02-28T04:06:41;6.30;1.00
38860;DHT22;24609;48.316;16.174;2024-02-28T04:09:06;6.30;1.00
38860;DHT22;24609;48.316;16.174;2024-02-28T04:11:32;6.30;1.00
38860;DHT22;24609;48.316;16.174;2024-02-28T04:13:59;6.20;1.00
38860;DHT22;24609;48.316;16.174;2024-02-28T04:16:25;6.20;1.00
38860;DHT22;24609;48.316;16.174;2024-02-28T04:18:50;6.20;1.00
38860;DHT22;24609;48.316;16.174;2024-02-28T04:21:16;6.30;1.00
38860;DHT22;24609;48.316;16.174;2024-02-28T04:23:42;6.20;1.00
38860;DHT22;24609;48.316;16.174;2024-02-28T04:26:09;6.20;1.00
38860;DHT22;24609;48.316;16.174;2024-02-28T04:28:35;6.30;1.00
38860;DHT22;24609;48.316;16.174;2024-02-28T04:31:00;6.30;1.00
38860;DHT22;24609;48.316;16.174;2024-02-28T04:33:26;6.30;1.00
38860;DHT22;24609;48.316;16.174;2024-02-28T04:35:52;6.30;1.00
38860;DHT22;24609;48.316;16.174;2024-02-28T04:38:17;6.30;1.00
38860;DHT22;24609;48.316;16.174;2024-02-28T04:40:43;6.30;1.00
38860;DHT22;24609;48.316;16.174;2024-02-28T04:43:09;6.20;1.00
38860;DHT22;24609;48.316;16.174;2024-02-28T04:45:35;6.20;1.00
38860;DHT22;24609;48.316;16.174;2024-02-28T04:48:01;6.20;1.00
38860;DHT22;24609;48.316;16.174;2024-02-28T04:50:26;6.20;1.00
38860;DHT22;24609;48.316;16.174;2024-02-28T04:52:52;6.10;1.00
38860;DHT22;24609;48.316;16.174;2024-02-28T04:55:18;6.10;1.00
38860;DHT22;24609;48.316;16.174;2024-02-28T04:57:44;6.10;1.00
38860;DHT22;24609;48.316;16.174;2024-02-28T05:00:10;6.10;1.00
38860;DHT22;24609;48.316;16.174;2024-02-28T05:02:35;6.00;1.00
38860;DHT22;24609;48.316;16.174;2024-02-28T05:05:01;5.90;1.00
38860;DHT22;24609;48.316;16.174;2024-02-28T05:07:27;5.90;1.00
38860;DHT22;24609;48.316;16.174;2024-02-28T05:09:52;5.70;1.00
38860;DHT22;24609;48.316;16.174;2024-02-28T05:12:18;5.60;1.00
38860;DHT22;24609;48.316;16.174;2024-02-28T05:14:44;5.60;96.40
38860;DHT22;24609;48.316;16.174;2024-02-28T05:17:10;5.50;99.90
38860;DHT22;24609;48.316;16.174;2024-02-28T05:19:36;5.50;99.90
38860;DHT22;24609;48.316;16.174;2024-02-28T05:22:01;5.50;99.90
38860;DHT22;24609;48.316;16.174;2024-02-28T05:24:28;5.50;99.90
38860;DHT22;24609;48.316;16.174;2024-02-28T05:26:54;5.40;99.90
38860;DHT22;24609;48.316;16.174;2024-02-28T05:29:19;5.40;99.90
38860;DHT22;24609;48.316;16.174;2024-02-28T05:31:45;5.40;99.90
38860;DHT22;24609;48.316;16.174;2024-02-28T05:34:11;5.40;99.90
38860;DHT22;24609;48.316;16.174;2024-02-28T05:36:36;5.40;99.90
38860;DHT22;24609;48.316;16.174;2024-02-28T05:39:02;5.50;99.90
38860;DHT22;24609;48.316;16.174;2024-02-28T05:41:30;5.40;99.90
38860;DHT22;24609;48.316;16.174;2024-02-28T05:43:56;5.40;99.90
38860;DHT22;24609;48.316;16.174;2024-02-28T05:46:22;5.40;99.90
38860;DHT22;24609;48.316;16.174;2024-02-28T05:48:47;5.40;99.90
38860;DHT22;24609;48.316;16.174;2024-02-28T05:51:13;5.50;99.90
38860;DHT22;24609;48.316;16.174;2024-02-28T05:53:39;5.60;99.90
38860;DHT22;24609;48.316;16.174;2024-02-28T05:56:09;5.60;99.90
38860;DHT22;24609;48.316;16.174;2024-02-28T05:58:43;5.60;84.50
38860;DHT22;24609;48.316;16.174;2024-02-28T06:01:10;5.60;56.80
38860;DHT22;24609;48.316;16.174;2024-02-28T06:03:39;5.50;9.50
38860;DHT22;24609;48.316;16.174;2024-02-28T06:06:05;5.30;1.00
38860;DHT22;24609;48.316;16.174;2024-02-28T06:08:35;5.20;14.40
38860;DHT22;24609;48.316;16.174;2024-02-28T06:11:03;5.20;99.90
38860;DHT22;24609;48.316;16.174;2024-02-28T06:13:28;5.20;99.90
38860;DHT22;24609;48.316;16.174;2024-02-28T06:15:55;5.20;99.90
38860;DHT22;24609;48.316;16.174;2024-02-28T06:18:21;5.20;99.90
38860;DHT22;24609;48.316;16.174;2024-02-28T06:20:55;5.20;99.90
38860;DHT22;24609;48.316;16.174;2024-02-28T06:23:21;5.20;99.90
38860;DHT22;24609;48.316;16.174;2024-02-28T06:25:47;5.30;99.90
38860;DHT22;24609;48.316;16.174;2024-02-28T06:28:13;5.40;99.90
38860;DHT22;24609;48.316;16.174;2024-02-28T06:30:39;5.40;99.90
38860;DHT22;24609;48.316;16.174;2024-02-28T06:33:04;5.50;99.90
38860;DHT22;24609;48.316;16.174;2024-02-28T06:35:30;5.50;99.90
38860;DHT22;24609;48.316;16.174;2024-02-28T06:37:56;5.60;22.80
38860;DHT22;24609;48.316;16.174;2024-02-28T06:40:22;5.60;43.50
38860;DHT22;24609;48.316;16.174;2024-02-28T06:42:47;5.60;65.10
38860;DHT22;24609;48.316;16.174;2024-02-28T06:45:13;5.70;74.60
38860;DHT22;24609;48.316;16.174;2024-02-28T06:47:39;5.70;48.60
38860;DHT22;24609;48.316;16.174;2024-02-28T06:50:06;5.70;20.10
38860;DHT22;24609;48.316;16.174;2024-02-28T06:52:32;5.60;93.00
38860;DHT22;24609;48.316;16.174;2024-02-28T06:54:57;5.70;99.90
38860;DHT22;24609;48.316;16.174;2024-02-28T06:57:23;5.70;99.90
38860;DHT22;24609;48.316;16.174;2024-02-28T06:59:49;5.80;99.90
38860;DHT22;24609;48.316;16.174;2024-02-28T07:02:15;6.00;99.90
38860;DHT22;24609;48.316;16.174;2024-02-28T07:04:41;6.10;99.90
38860;DHT22;24609;48.316;16.174;2024-02-28T07:07:08;6.30;25.10
38860;DHT22;24609;48.316;16.174;2024-02-28T07:09:34;6.30;1.00
38860;DHT22;24609;48.316;16.174;2024-02-28T07:12:00;6.30;1.00
38860;DHT22;24609;48.316;16.174;2024-02-28T07:14:26;6.30;1.00
38860;DHT22;24609;48.316;16.174;2024-02-28T07:16:52;6.40;1.00
38860;DHT22;24609;48.316;16.174;2024-02-28T07:19:18;6.40;1.00
38860;DHT22;24609;48.316;16.174;2024-02-28T07:21:44;6.50;1.00
38860;DHT22;24609;48.316;16.174;2024-02-28T07:24:10;6.50;1.00
38860;DHT22;24609;48.316;16.174;2024-02-28T07:26:36;6.50;1.00
38860;DHT22;24609;48.316;16.174;2024-02-28T07:29:02;6.60;1.00
38860;DHT22;24609;48.316;16.174;2024-02-28T07:31:27;6.80;1.00
38860;DHT22;24609;48.316;16.174;2024-02-28T07:33:53;6.90;99.90
38860;DHT22;24609;48.316;16.174;2024-02-28T07:36:19;7.00;99.90
38860;DHT22;24609;48.316;16.174;2024-02-28T07:38:45;7.20;99.90
38860;DHT22;24609;48.316;16.174;2024-02-28T07:41:11;7.60;99.90
38860;DHT22;24609;48.316;16.174;2024-02-28T07:43:37;7.90;1.00
38860;DHT22;24609;48.316;16.174;2024-02-28T07:46:12;7.90;99.90
38860;DHT22;24609;48.316;16.174;2024-02-28T07:48:38;7.70;99.90
38860;DHT22;24609;48.316;16.174;2024-02-28T07:51:05;7.90;1.00
38860;DHT22;24609;48.316;16.174;2024-02-28T07:53:31;8.00;99.90
38860;DHT22;24609;48.316;16.174;2024-02-28T07:55:57;8.00;99.90
38860;DHT22;24609;48.316;16.174;2024-02-28T07:58:23;7.80;99.90
38860;DHT22;24609;48.316;16.174;2024-02-28T08:00:50;7.90;99.90
38860;DHT22;24609;48.316;16.174;2024-02-28T08:03:18;7.90;99.90
38860;DHT22;24609;48.316;16.174;2024-02-28T08:05:43;8.10;99.90
38860;DHT22;24609;48.316;16.174;2024-02-28T08:08:10;8.00;99.90
38860;DHT22;24609;48.316;16.174;2024-02-28T08:10:37;8.30;99.90
38860;DHT22;24609;48.316;16.174;2024-02-28T08:13:03;8.30;99.90
38860;DHT22;24609;48.316;16.174;2024-02-28T08:15:29;8.40;93.90
38860;DHT22;24609;48.316;16.174;2024-02-28T08:17:55;8.70;99.90
38860;DHT22;24609;48.316;16.174;2024-02-28T08:20:21;8.90;99.90
38860;DHT22;24609;48.316;16.174;2024-02-28T08:22:47;8.90;1.00
38860;DHT22;24609;48.316;16.174;2024-02-28T08:25:13;9.00;99.90
38860;DHT22;24609;48.316;16.174;2024-02-28T08:27:39;9.10;99.90
38860;DHT22;24609;48.316;16.174;2024-02-28T08:30:05;9.10;1.00
38860;DHT22;24609;48.316;16.174;2024-02-28T08:32:32;9.20;26.90
38860;DHT22;24609;48.316;16.174;2024-02-28T08:34:58;9.20;1.00
38860;DHT22;24609;48.316;16.174;2024-02-28T08:37:24;9.50;99.90
38860;DHT22;24609;48.316;16.174;2024-02-28T08:39:51;9.60;99.90
38860;DHT22;24609;48.316;16.174;2024-02-28T08:42:16;9.30;99.90
38860;DHT22;24609;48.316;16.174;2024-02-28T08:44:42;9.30;99.90
38860;DHT22;24609;48.316;16.174;2024-02-28T08:47:08;9.60;1.00
38860;DHT22;24609;48.316;16.174;2024-02-28T08:49:35;10.00;1.00
38860;DHT22;24609;48.316;16.174;2024-02-28T08:52:01;10.10;51.50
38860;DHT22;24609;48.316;16.174;2024-02-28T08:54:27;10.20;99.90
38860;DHT22;24609;48.316;16.174;2024-02-28T08:56:53;10.70;99.90
38860;DHT22;24609;48.316;16.174;2024-02-28T08:59:18;10.60;99.90
38860;DHT22;24609;48.316;16.174;2024-02-28T09:01:44;10.60;99.90
38860;DHT22;24609;48.316;16.174;2024-02-28T09:04:10;10.30;99.90
38860;DHT22;24609;48.316;16.174;2024-02-28T09:06:35;10.30;17.40
38860;DHT22;24609;48.316;16.174;2024-02-28T09:09:01;10.70;1.00
38860;DHT22;24609;48.316;16.174;2024-02-28T09:11:27;11.40;1.00
38860;DHT22;24609;48.316;16.174;2024-02-28T09:13:52;11.50;99.90
38860;DHT22;24609;48.316;16.174;2024-02-28T09:16:18;11.30;99.90
38860;DHT22;24609;48.316;16.174;2024-02-28T09:18:44;12.10;29.10
38860;DHT22;24609;48.316;16.174;2024-02-28T09:21:10;13.00;99.90
38860;DHT22;24609;48.316;16.174;2024-02-28T09:23:35;13.10;99.90
38860;DHT22;24609;48.316;16.174;2024-02-28T09:26:05;13.00;99.90
38860;DHT22;24609;48.316;16.174;2024-02-28T09:28:31;12.00;99.90
38860;DHT22;24609;48.316;16.174;2024-02-28T09:30:57;11.60;1.00
38860;DHT22;24609;48.316;16.174;2024-02-28T09:33:23;11.50;1.00
38860;DHT22;24609;48.316;16.174;2024-02-28T09:35:49;11.30;43.30
38860;DHT22;24609;48.316;16.174;2024-02-28T09:38:14;11.30;99.90
38860;DHT22;24609;48.316;16.174;2024-02-28T09:40:40;11.10;99.90
38860;DHT22;24609;48.316;16.174;2024-02-28T09:43:15;10.70;99.90
38860;DHT22;24609;48.316;16.174;2024-02-28T09:45:41;11.10;1.00
38860;DHT22;24609;48.316;16.174;2024-02-28T09:48:07;11.40;99.90
38860;DHT22;24609;48.316;16.174;2024-02-28T09:50:35;11.20;99.90
38860;DHT22;24609;48.316;16.174;2024-02-28T09:53:01;11.30;99.90
38860;DHT22;24609;48.316;16.174;2024-02-28T09:55:26;12.00;58.00
38860;DHT22;24609;48.316;16.174;2024-02-28T09:57:53;12.40;99.90
38860;DHT22;24609;48.316;16.174;2024-02-28T10:00:19;12.70;99.90
38860;DHT22;24609;48.316;16.174;2024-02-28T10:02:48;12.40;99.90
38860;DHT22;24609;48.316;16.174;2024-02-28T10:05:16;11.90;99.90
38860;DHT22;24609;48.316;16.174;2024-02-28T10:07:45;11.90;1.00
38860;DHT22;24609;48.316;16.174;2024-02-28T10:10:11;11.20;1.00
38860;DHT22;24609;48.316;16.174;2024-02-28T10:12:41;11.70;99.90
38860;DHT22;24609;48.316;16.174;2024-02-28T10:15:07;11.70;1.00
38860;DHT22;24609;48.316;16.174;2024-02-28T10:17:34;11.70;1.00
38860;DHT22;24609;48.316;16.174;2024-02-28T10:20:00;11.50;99.90
38860;DHT22;24609;48.316;16.174;2024-02-28T10:22:26;11.40;8.00
38860;DHT22;24609;48.316;16.174;2024-02-28T10:24:58;11.10;99.90
38860;DHT22;24609;48.316;16.174;2024-02-28T10:27:24;11.40;99.90
38860;DHT22;24609;48.316;16.174;2024-02-28T10:29:50;11.10;99.90
38860;DHT22;24609;48.316;16.174;2024-02-28T10:32:15;11.00;99.90
38860;DHT22;24609;48.316;16.174;2024-02-28T10:34:41;11.10;1.00
38860;DHT22;24609;48.316;16.174;2024-02-28T10:37:09;11.10;1.00
38860;DHT22;24609;48.316;16.174;2024-02-28T10:39:35;11.10;99.90
38860;DHT22;24609;48.316;16.174;2024-02-28T10:42:02;11.20;99.90
38860;DHT22;24609;48.316;16.174;2024-02-28T10:44:29;11.10;1.00
38860;DHT22;24609;48.316;16.174;2024-02-28T10:46:56;11.10;99.90
38860;DHT22;24609;48.316;16.174;2024-02-28T10:49:22;11.30;99.90
38860;DHT22;24609;48.316;16.174;2024-02-28T10:51:49;11.50;99.90
38860;DHT22;24609;48.316;16.174;2024-02-28T10:54:16;12.00;1.00
38860;DHT22;24609;48.316;16.174;2024-02-28T10:56:46;12.20;1.00
38860;DHT22;24609;48.316;16.174;2024-02-28T10:59:12;11.90;1.00
38860;DHT22;24609;48.316;16.174;2024-02-28T11:01:40;12.20;1.00
38860;DHT22;24609;48.316;16.174;2024-02-28T11:04:12;12.30;99.90
38860;DHT22;24609;48.316;16.174;2024-02-28T11:06:53;11.60;99.90
38860;DHT22;24609;48.316;16.174;2024-02-28T11:09:22;12.10;1.00
38860;DHT22;24609;48.316;16.174;2024-02-28T11:11:49;12.20;99.90
38860;DHT22;24609;48.316;16.174;2024-02-28T11:14:16;12.60;99.90
38860;DHT22;24609;48.316;16.174;2024-02-28T11:16:42;12.40;99.90
38860;DHT22;24609;48.316;16.174;2024-02-28T11:19:20;12.60;99.90
38860;DHT22;24609;48.316;16.174;2024-02-28T11:21:54;12.60;99.90
38860;DHT22;24609;48.316;16.174;2024-02-28T11:24:24;12.60;99.90
38860;DHT22;24609;48.316;16.174;2024-02-28T11:26:52;12.40;99.90
38860;DHT22;24609;48.316;16.174;2024-02-28T11:29:28;12.30;99.90
38860;DHT22;24609;48.316;16.174;2024-02-28T11:31:54;12.40;99.90
38860;DHT22;24609;48.316;16.174;2024-02-28T11:34:20;12.40;99.90
38860;DHT22;24609;48.316;16.174;2024-02-28T11:36:50;12.00;99.90
38860;DHT22;24609;48.316;16.174;2024-02-28T11:39:17;11.70;1.00
38860;DHT22;24609;48.316;16.174;2024-02-28T11:41:43;11.80;25.90
38860;DHT22;24609;48.316;16.174;2024-02-28T11:44:16;11.80;99.90
38860;DHT22;24609;48.316;16.174;2024-02-28T11:46:47;11.50;1.00
38860;DHT22;24609;48.316;16.174;2024-02-28T11:49:13;11.50;99.90
38860;DHT22;24609;48.316;16.174;2024-02-28T11:51:43;11.60;99.90
38860;DHT22;24609;48.316;16.174;2024-02-28T11:54:09;11.80;99.90
38860;DHT22;24609;48.316;16.174;2024-02-28T11:56:38;12.10;27.00
38860;DHT22;24609;48.316;16.174;2024-02-28T11:59:04;12.70;99.90
38860;DHT22;24609;48.316;16.174;2024-02-28T12:01:37;12.70;99.90
38860;DHT22;24609;48.316;16.174;2024-02-28T12:04:04;13.10;99.90
38860;DHT22;24609;48.316;16.174;2024-02-28T12:06:37;13.40;99.90
38860;DHT22;24609;48.316;16.174;2024-02-28T12:09:04;13.20;99.90
38860;DHT22;24609;48.316;16.174;2024-02-28T12:11:30;13.10;99.90
38860;DHT22;24609;48.316;16.174;2024-02-28T12:13:57;13.00;99.90
38860;DHT22;24609;48.316;16.174;2024-02-28T12:16:25;12.80;99.90
38860;DHT22;24609;48.316;16.174;2024-02-28T12:18:52;12.60;99.90
38860;DHT22;24609;48.316;16.174;2024-02-28T12:21:19;12.50;99.90
38860;DHT22;24609;48.316;16.174;2024-02-28T12:23:45;12.30;99.90
38860;DHT22;24609;48.316;16.174;2024-02-28T12:26:11;12.30;99.90
38860;DHT22;24609;48.316;16.174;2024-02-28T12:28:37;12.10;99.90
38860;DHT22;24609;48.316;16.174;2024-02-28T12:31:02;12.10;1.00
38860;DHT22;24609;48.316;16.174;2024-02-28T12:33:30;12.00;1.00
38860;DHT22;24609;48.316;16.174;2024-02-28T12:35:56;12.00;1.00
38860;DHT22;24609;48.316;16.174;2024-02-28T12:38:22;11.80;1.00
38860;DHT22;24609;48.316;16.174;2024-02-28T12:40:48;11.80;92.70
38860;DHT22;24609;48.316;16.174;2024-02-28T12:43:13;11.80;54.20
38860;DHT22;24609;48.316;16.174;2024-02-28T12:45:39;11.90;1.00
38860;DHT22;24609;48.316;16.174;2024-02-28T12:48:05;12.00;1.00
38860;DHT22;24609;48.316;16.174;2024-02-28T12:50:31;11.90;12.80
38860;DHT22;24609;48.316;16.174;2024-02-28T12:52:59;11.70;1.00
38860;DHT22;24609;48.316;16.174;2024-02-28T12:55:25;11.60;24.50
38860;DHT22;24609;48.316;16.174;2024-02-28T12:57:51;11.60;79.60
38860;DHT22;24609;48.316;16.174;2024-02-28T13:00:17;11.50;16.20
38860;DHT22;24609;48.316;16.174;2024-02-28T13:02:44;11.40;44.40
38860;DHT22;24609;48.316;16.174;2024-02-28T13:05:11;11.40;97.30
38860;DHT22;24609;48.316;16.174;2024-02-28T13:07:36;11.30;99.90
38860;DHT22;24609;48.316;16.174;2024-02-28T13:10:02;11.40;99.90
38860;DHT22;24609;48.316;16.174;2024-02-28T13:12:30;11.40;99.90
38860;DHT22;24609;48.316;16.174;2024-02-28T13:14:56;11.50;99.90
38860;DHT22;24609;48.316;16.174;2024-02-28T13:17:22;11.60;99.90
38860;DHT22;24609;48.316;16.174;2024-02-28T13:19:47;11.80;99.90
38860;DHT22;24609;48.316;16.174;2024-02-28T13:22:13;11.80;99.90
38860;DHT22;24609;48.316;16.174;2024-02-28T13:24:38;12.00;26.20
38860;DHT22;24609;48.316;16.174;2024-02-28T13:27:04;12.20;1.00
38860;DHT22;24609;48.316;16.174;2024-02-28T13:29:30;12.30;1.00
38860;DHT22;24609;48.316;16.174;2024-02-28T13:31:58;12.40;1.00
38860;DHT22;24609;48.316;16.174;2024-02-28T13:34:23;12.60;1.00
38860;DHT22;24609;48.316;16.174;2024-02-28T13:36:49;12.60;1.00
38860;DHT22;24609;48.316;16.174;2024-02-28T13:39:15;12.70;99.90
38860;DHT22;24609;48.316;16.174;2024-02-28T13:41:41;12.60;99.90
38860;DHT22;24609;48.316;16.174;2024-02-28T13:44:07;12.60;99.90
38860;DHT22;24609;48.316;16.174;2024-02-28T13:46:35;12.70;99.90
38860;DHT22;24609;48.316;16.174;2024-02-28T13:49:00;12.70;99.90
38860;DHT22;24609;48.316;16.174;2024-02-28T13:51:26;12.60;99.90
38860;DHT22;24609;48.316;16.174;2024-02-28T13:53:52;12.70;99.90
38860;DHT22;24609;48.316;16.174;2024-02-28T13:56:19;12.70;99.90
38860;DHT22;24609;48.316;16.174;2024-02-28T13:58:45;12.60;99.90
38860;DHT22;24609;48.316;16.174;2024-02-28T14:01:12;12.60;99.90
38860;DHT22;24609;48.316;16.174;2024-02-28T14:03:38;12.70;99.90
38860;DHT22;24609;48.316;16.174;2024-02-28T14:06:04;12.70;99.90
38860;DHT22;24609;48.316;16.174;2024-02-28T14:08:30;12.50;99.90
38860;DHT22;24609;48.316;16.174;2024-02-28T14:10:56;12.50;99.90
38860;DHT22;24609;48.316;16.174;2024-02-28T14:13:21;12.50;99.90
38860;DHT22;24609;48.316;16.174;2024-02-28T14:15:47;12.10;99.90
38860;DHT22;24609;48.316;16.174;2024-02-28T14:18:13;11.90;1.00
38860;DHT22;24609;48.316;16.174;2024-02-28T14:20:38;12.00;1.50
38860;DHT22;24609;48.316;16.174;2024-02-28T14:23:05;12.10;1.00
38860;DHT22;24609;48.316;16.174;2024-02-28T14:25:30;12.40;1.00
38860;DHT22;24609;48.316;16.174;2024-02-28T14:27:56;12.50;1.00
38860;DHT22;24609;48.316;16.174;2024-02-28T14:30:22;12.70;1.00
38860;DHT22;24609;48.316;16.174;2024-02-28T14:32:49;12.90;99.90
38860;DHT22;24609;48.316;16.174;2024-02-28T14:35:15;12.90;99.90
38860;DHT22;24609;48.316;16.174;2024-02-28T14:37:41;12.90;99.90
38860;DHT22;24609;48.316;16.174;2024-02-28T14:40:08;12.90;99.90
38860;DHT22;24609;48.316;16.174;2024-02-28T14:42:41;12.90;99.90
38860;DHT22;24609;48.316;16.174;2024-02-28T14:45:08;12.90;99.90
38860;DHT22;24609;48.316;16.174;2024-02-28T14:47:34;12.90;99.90
38860;DHT22;24609;48.316;16.174;2024-02-28T14:50:03;13.10;99.90
38860;DHT22;24609;48.316;16.174;2024-02-28T14:52:29;12.90;99.90
38860;DHT22;24609;48.316;16.174;2024-02-28T14:54:55;12.70;99.90
38860;DHT22;24609;48.316;16.174;2024-02-28T14:57:21;12.70;99.90
38860;DHT22;24609;48.316;16.174;2024-02-28T14:59:47;12.80;99.90
38860;DHT22;24609;48.316;16.174;2024-02-28T15:02:12;12.50;99.90
38860;DHT22;24609;48.316;16.174;2024-02-28T15:04:38;12.40;99.90
38860;DHT22;24609;48.316;16.174;2024-02-28T15:07:04;12.20;99.90
38860;DHT22;24609;48.316;16.174;2024-02-28T15:09:30;12.00;1.00
38860;DHT22;24609;48.316;16.174;2024-02-28T15:11:56;11.80;1.00
38860;DHT22;24609;48.316;16.174;2024-02-28T15:14:23;11.80;67.90
38860;DHT22;24609;48.316;16.174;2024-02-28T15:16:49;11.70;99.90
38860;DHT22;24609;48.316;16.174;2024-02-28T15:19:14;11.60;99.90
38860;DHT22;24609;48.316;16.174;2024-02-28T15:21:40;11.50;99.90
38860;DHT22;24609;48.316;16.174;2024-02-28T15:24:06;11.40;99.90